createdAt,value
2022-09-24T08:54:17.426Z,4.50
2022-09-24T08:56:47.358Z,3.40
2022-09-24T08:59:27.819Z,3.13
2022-09-24T09:02:04.767Z,2.90
2022-09-24T09:04:41.582Z,3.77
2022-09-24T09:07:17.492Z,3.23
2022-09-24T09:09:52.262Z,2.97
2022-09-24T09:12:26.408Z,3.10
2022-09-24T09:14:59.734Z,3.07
2022-09-24T09:17:35.607Z,2.80
2022-09-24T09:20:08.138Z,2.40
2022-09-24T09:22:42.721Z,2.17
2022-09-24T09:25:31.896Z,1.97
2022-09-24T09:28:03.029Z,1.80
2022-09-24T09:30:43.444Z,2.10
2022-09-24T09:33:25.660Z,2.50
2022-09-24T09:36:01.187Z,2.77
2022-09-24T09:38:35.595Z,2.40
2022-09-24T09:41:18.952Z,2.23
2022-09-24T09:43:47.720Z,2.80
2022-09-24T09:46:19.782Z,2.70
2022-09-24T09:48:52.246Z,2.43
2022-09-24T09:51:22.974Z,2.40
2022-09-24T09:53:59.119Z,2.33
2022-09-24T09:56:31.347Z,2.20
2022-09-24T09:59:08.373Z,2.27
2022-09-24T10:01:40.610Z,1.90
2022-09-24T10:04:29.952Z,2.30
2022-09-24T10:07:09.530Z,2.27
2022-09-24T10:09:38.671Z,3.13
2022-09-24T10:12:17.822Z,2.50
2022-09-24T10:14:46.242Z,2.13
2022-09-24T10:17:20.513Z,2.23
2022-09-24T10:19:50.803Z,2.30
2022-09-24T10:22:23.683Z,2.17
2022-09-24T10:24:52.711Z,1.80
2022-09-24T10:27:31.706Z,2.13
2022-09-24T10:30:18.821Z,2.20
2022-09-24T10:32:48.824Z,2.40
2022-09-24T10:35:27.571Z,1.87
2022-09-24T10:37:57.271Z,2.03
2022-09-24T10:40:29.894Z,1.90
2022-09-24T10:43:03.637Z,1.80
2022-09-24T10:46:07.327Z,2.10
2022-09-24T10:48:43.732Z,1.90
2022-09-24T10:51:28.809Z,2.00
2022-09-24T10:54:16.124Z,2.40
2022-09-24T10:56:49.244Z,2.00
2022-09-24T10:59:51.361Z,1.80
2022-09-24T11:02:42.494Z,2.10
2022-09-24T11:05:13.414Z,1.97
2022-09-24T11:07:55.171Z,2.10
2022-09-24T11:10:35.744Z,2.30
2022-09-24T11:13:15.482Z,2.20
2022-09-24T11:16:17.222Z,2.53
2022-09-24T11:18:57.183Z,2.07
2022-09-24T11:21:36.776Z,1.90
2022-09-24T11:24:18.495Z,2.27
2022-09-24T11:26:57.048Z,1.90
2022-09-24T11:29:37.821Z,2.40
2022-09-24T11:32:19.340Z,1.93
2022-09-24T11:35:05.015Z,2.00
2022-09-24T11:37:46.211Z,2.10
2022-09-24T11:40:27.891Z,2.10
2022-09-24T11:43:09.357Z,1.80
2022-09-24T11:45:53.328Z,1.83
2022-09-24T11:48:50.537Z,4.60
2022-09-24T11:51:32.180Z,2.00
2022-09-24T11:54:04.418Z,1.30
2022-09-24T11:56:35.202Z,1.30
2022-09-24T11:59:17.643Z,1.23
2022-09-24T12:01:50.524Z,1.10
2022-09-24T12:04:27.310Z,1.20
2022-09-24T12:06:59.031Z,2.00
2022-09-24T12:09:34.461Z,6.77
2022-09-24T12:12:07.290Z,2.17
2022-09-24T12:14:47.153Z,1.40
2022-09-24T12:17:22.529Z,4.90
2022-09-24T12:19:56.596Z,3.60
2022-09-24T12:22:26.991Z,5.50
2022-09-24T12:24:58.463Z,3.20
2022-09-24T12:27:32.607Z,1.57
2022-09-24T12:30:24.030Z,3.17
2022-09-24T12:32:59.160Z,2.50
2022-09-24T12:35:38.304Z,2.00
2022-09-24T12:38:10.750Z,1.73
2022-09-24T12:41:21.004Z,1.50
2022-09-24T12:43:54.510Z,1.43
2022-09-24T12:46:26.294Z,1.40
2022-09-24T12:48:56.328Z,1.60
2022-09-24T12:51:34.897Z,1.27
2022-09-24T12:54:08.822Z,1.40
2022-09-24T12:56:37.226Z,1.10
2022-09-24T12:59:05.930Z,1.77
2022-09-24T13:01:35.786Z,3.20
2022-09-24T13:04:34.213Z,2.50
2022-09-24T13:07:03.773Z,1.60
2022-09-24T13:09:37.431Z,1.60
2022-09-24T13:12:22.201Z,1.50
2022-09-24T13:14:56.430Z,1.50
2022-09-24T13:17:25.136Z,1.57
2022-09-24T13:19:59.316Z,1.40
2022-09-24T13:22:30.997Z,1.20
2022-09-24T13:25:22.719Z,1.40
2022-09-24T13:28:03.067Z,1.23
2022-09-24T13:30:38.733Z,1.40
2022-09-24T13:33:21.206Z,1.63
2022-09-24T13:36:01.965Z,1.30
2022-09-24T13:38:34.577Z,1.40
2022-09-24T13:41:08.371Z,1.10
2022-09-24T13:43:45.063Z,1.40
2022-09-24T13:46:16.903Z,1.97
2022-09-24T13:48:51.042Z,1.40
2022-09-24T13:51:23.617Z,3.43
2022-09-24T13:53:57.109Z,1.63
2022-09-24T13:56:26.254Z,1.40
2022-09-24T13:59:06.276Z,1.60
2022-09-24T14:01:40.953Z,1.60
2022-09-24T14:04:17.734Z,2.20
2022-09-24T14:06:50.730Z,2.07
2022-09-24T14:09:29.876Z,1.90
2022-09-24T14:12:00.490Z,2.30
2022-09-24T14:14:30.894Z,2.03
2022-09-24T14:17:08.992Z,1.97
2022-09-24T14:19:37.397Z,2.00
2022-09-24T14:22:11.231Z,2.20
2022-09-24T14:24:48.336Z,2.60
2022-09-24T14:27:20.503Z,2.07
2022-09-24T14:29:53.282Z,2.93
2022-09-24T14:32:24.534Z,6.53
2022-09-24T14:34:54.873Z,5.13
2022-09-24T14:37:29.134Z,2.30
2022-09-24T14:40:05.482Z,1.80
2022-09-24T14:42:39.389Z,1.80
2022-09-24T14:45:11.287Z,1.77
2022-09-24T14:47:39.492Z,1.70
2022-09-24T14:50:35.285Z,1.90
2022-09-24T14:53:12.628Z,1.80
2022-09-24T14:55:46.432Z,2.20
2022-09-24T14:58:36.393Z,2.40
2022-09-24T15:01:13.859Z,1.40
2022-09-24T15:03:44.921Z,1.50
2022-09-24T15:06:21.306Z,1.70
2022-09-24T15:09:00.650Z,1.70
2022-09-24T15:11:34.256Z,1.63
2022-09-24T15:14:12.857Z,1.73
2022-09-24T15:16:41.140Z,1.83
2022-09-24T15:19:30.697Z,1.70
2022-09-24T15:22:00.128Z,2.10
2022-09-24T15:24:29.608Z,1.80
2022-09-24T15:27:04.759Z,1.50
2022-09-24T15:29:33.541Z,2.77
2022-09-24T15:32:02.416Z,3.53
2022-09-24T15:34:30.567Z,3.80
2022-09-24T15:37:00.276Z,3.40
2022-09-24T15:39:29.327Z,3.73
2022-09-24T15:41:57.426Z,3.60
2022-09-24T15:44:33.712Z,2.67
2022-09-24T15:47:02.289Z,3.23
2022-09-24T15:49:31.344Z,3.10
2022-09-24T15:52:03.199Z,2.90
2022-09-24T15:54:31.437Z,2.73
2022-09-24T15:57:00.722Z,2.77
2022-09-24T15:59:30.554Z,3.37
2022-09-24T16:02:03.466Z,4.00
2022-09-24T16:04:31.646Z,4.60
2022-09-24T16:07:00.151Z,4.70
2022-09-24T16:09:28.266Z,5.30
2022-09-24T16:11:57.610Z,6.33
2022-09-24T16:14:25.746Z,6.30
2022-09-24T16:16:55.800Z,5.60
2022-09-24T16:19:24.177Z,10.27
2022-09-24T16:21:52.486Z,14.50
2022-09-24T16:24:20.636Z,17.03
2022-09-24T16:26:48.783Z,17.43
2022-09-24T16:29:18.057Z,16.40
2022-09-24T16:31:46.857Z,16.73
2022-09-24T16:34:16.556Z,17.73
2022-09-24T16:36:44.739Z,17.77
2022-09-24T16:39:12.936Z,16.73
2022-09-24T16:41:41.222Z,15.37
2022-09-24T16:44:11.392Z,14.33
2022-09-24T16:46:39.534Z,14.60
2022-09-24T16:49:07.853Z,14.30
2022-09-24T16:51:37.926Z,13.60
2022-09-24T16:54:06.702Z,17.13
2022-09-24T16:56:34.874Z,15.83
2022-09-24T16:59:03.026Z,18.33
2022-09-24T17:01:31.375Z,18.33
2022-09-24T17:04:00.490Z,21.83
2022-09-24T17:06:30.144Z,21.00
2022-09-24T17:09:17.351Z,20.53
2022-09-24T17:11:46.752Z,19.40
2022-09-24T17:14:17.825Z,17.60
2022-09-24T17:16:46.364Z,15.53
2022-09-24T17:19:17.542Z,15.00
2022-09-24T17:21:50.042Z,14.37
2022-09-24T17:24:22.088Z,13.60
2022-09-24T17:26:50.843Z,14.90
2022-09-24T17:29:20.893Z,15.97
2022-09-24T17:31:49.326Z,16.50
2022-09-24T17:34:17.565Z,18.37
2022-09-24T17:36:45.888Z,19.17
2022-09-24T17:39:14.591Z,18.40
2022-09-24T17:41:44.083Z,19.83
2022-09-24T17:44:13.447Z,21.97
2022-09-24T17:46:41.760Z,28.50
2022-09-24T17:49:11.296Z,30.20
2022-09-24T17:51:39.770Z,37.97
2022-09-24T17:54:10.201Z,43.03
2022-09-24T17:56:39.245Z,43.33
2022-09-24T17:59:09.883Z,39.17
2022-09-24T18:01:40.014Z,37.37
2022-09-24T18:04:11.555Z,37.97
2022-09-24T18:06:40.860Z,34.40
2022-09-24T18:09:10.163Z,32.93
2022-09-24T18:11:41.083Z,32.00
2022-09-24T18:14:14.514Z,30.50
2022-09-24T18:16:43.173Z,28.00
2022-09-24T18:19:12.698Z,29.40
2022-09-24T18:21:41.032Z,28.30
2022-09-24T18:24:10.583Z,26.03
2022-09-24T18:26:40.658Z,26.23
2022-09-24T18:29:15.633Z,27.00
2022-09-24T18:31:45.067Z,29.73
2022-09-24T18:34:14.975Z,30.10
2022-09-24T18:36:44.814Z,32.43
2022-09-24T18:39:15.810Z,33.13
2022-09-24T18:41:45.836Z,33.60
2022-09-24T18:44:15.394Z,34.03
2022-09-24T18:46:43.572Z,33.00
2022-09-24T18:49:13.112Z,30.13
2022-09-24T18:51:41.296Z,29.73
2022-09-24T18:54:12.506Z,28.07
2022-09-24T18:56:41.394Z,27.67
2022-09-24T18:59:12.758Z,25.57
2022-09-24T19:01:43.326Z,24.77
2022-09-24T19:04:12.735Z,25.27
2022-09-24T19:06:42.945Z,25.57
2022-09-24T19:09:13.434Z,30.50
2022-09-24T19:11:42.315Z,32.67
2022-09-24T19:14:12.236Z,30.93
2022-09-24T19:16:42.693Z,30.10
2022-09-24T19:19:11.557Z,28.47
2022-09-24T19:21:40.598Z,26.30
2022-09-24T19:24:09.821Z,24.93
2022-09-24T19:26:38.532Z,24.17
2022-09-24T19:29:06.723Z,23.80
2022-09-24T19:31:36.987Z,22.63
2022-09-24T19:34:08.493Z,23.57
2022-09-24T19:36:43.007Z,26.17
2022-09-24T19:39:12.796Z,27.47
2022-09-24T19:41:41.123Z,29.97
2022-09-24T19:44:10.757Z,29.30
2022-09-24T19:46:39.504Z,30.90
2022-09-24T19:49:09.162Z,31.50
2022-09-24T19:51:38.054Z,32.67
2022-09-24T19:54:08.779Z,32.70
2022-09-24T19:56:38.369Z,31.23
2022-09-24T19:59:10.918Z,28.63
2022-09-24T20:01:39.209Z,25.20
2022-09-24T20:04:09.144Z,24.77
2022-09-24T20:06:39.227Z,23.90
2022-09-24T20:09:08.897Z,23.93
2022-09-24T20:11:37.302Z,22.90
2022-09-24T20:14:09.122Z,23.80
2022-09-24T20:16:38.067Z,24.07
2022-09-24T20:19:07.251Z,22.47
2022-09-24T20:21:36.940Z,21.97
2022-09-24T20:24:06.951Z,23.23
2022-09-24T20:26:53.244Z,24.77
2022-09-24T20:29:22.922Z,23.80
2022-09-24T20:31:55.638Z,21.93
2022-09-24T20:34:31.694Z,20.50
2022-09-24T20:37:02.020Z,21.77
2022-09-24T20:39:31.430Z,21.67
2022-09-24T20:42:02.205Z,21.47
2022-09-24T20:44:30.746Z,22.00
2022-09-24T20:46:59.362Z,22.17
2022-09-24T20:49:28.125Z,24.27
2022-09-24T20:51:58.019Z,28.53
2022-09-24T20:54:29.230Z,29.17
2022-09-24T20:56:57.703Z,26.07
2022-09-24T20:59:26.610Z,24.97
2022-09-24T21:01:55.438Z,24.17
2022-09-24T21:04:24.100Z,21.03
2022-09-24T21:06:52.302Z,20.57
2022-09-24T21:09:20.564Z,20.97
2022-09-24T21:11:50.534Z,20.33
2022-09-24T21:14:19.269Z,18.73
2022-09-24T21:16:47.792Z,18.93
2022-09-24T21:19:16.506Z,19.93
2022-09-24T21:21:44.623Z,19.43
2022-09-24T21:24:14.611Z,21.00
2022-09-24T21:26:45.166Z,20.73
2022-09-24T21:29:18.040Z,20.00
2022-09-24T21:31:47.506Z,20.73
2022-09-24T21:34:17.176Z,20.43
2022-09-24T21:36:46.554Z,20.70
2022-09-24T21:39:16.844Z,21.53
2022-09-24T21:41:48.158Z,21.37
2022-09-24T21:44:18.571Z,21.10
2022-09-24T21:46:47.296Z,22.40
2022-09-24T21:49:17.156Z,24.67
2022-09-24T21:51:46.242Z,26.33
2022-09-24T21:54:17.470Z,24.97
2022-09-24T21:56:46.700Z,25.97
2022-09-24T21:59:32.718Z,26.20
2022-09-24T22:02:03.268Z,26.37
2022-09-24T22:04:33.386Z,26.77
2022-09-24T22:07:01.799Z,27.60
2022-09-24T22:09:31.911Z,25.27
2022-09-24T22:12:01.695Z,24.33
2022-09-24T22:14:29.972Z,25.60
2022-09-24T22:16:58.396Z,25.00
2022-09-24T22:19:27.957Z,24.80
2022-09-24T22:21:56.287Z,25.53
2022-09-24T22:24:24.353Z,25.90
2022-09-24T22:26:54.131Z,25.33
2022-09-24T22:29:22.899Z,25.17
2022-09-24T22:31:51.160Z,26.50
2022-09-24T22:34:36.774Z,27.77
2022-09-24T22:37:07.989Z,29.73
2022-09-24T22:39:36.618Z,29.13
2022-09-24T22:42:05.135Z,28.87
2022-09-24T22:44:33.299Z,28.50
2022-09-24T22:47:01.471Z,28.90
2022-09-24T22:49:29.563Z,28.63
2022-09-24T22:51:57.656Z,27.70
2022-09-24T22:54:27.181Z,27.37
2022-09-24T22:56:55.442Z,27.73
2022-09-24T22:59:23.644Z,27.13
2022-09-24T23:01:51.779Z,26.27
2022-09-24T23:04:20.592Z,26.77
2022-09-24T23:06:48.796Z,27.00
2022-09-24T23:09:16.958Z,26.97
2022-09-24T23:11:46.435Z,25.40
2022-09-24T23:14:16.763Z,24.30
2022-09-24T23:16:46.743Z,25.67
2022-09-24T23:19:17.063Z,25.07
2022-09-24T23:21:45.700Z,24.63
2022-09-24T23:24:16.264Z,23.07
2022-09-24T23:26:44.664Z,22.43
2022-09-24T23:29:15.414Z,21.40
2022-09-24T23:31:43.688Z,18.50
2022-09-24T23:34:13.697Z,18.80
2022-09-24T23:36:42.013Z,17.30
2022-09-24T23:39:10.186Z,16.90
2022-09-24T23:41:38.349Z,17.70
2022-09-24T23:44:06.815Z,17.33
2022-09-24T23:46:36.405Z,16.57
2022-09-24T23:49:05.063Z,15.63
2022-09-24T23:51:33.223Z,14.93
2022-09-24T23:54:01.515Z,14.40
2022-09-24T23:56:29.659Z,15.53
2022-09-24T23:58:57.870Z,14.00
